createdAt,value
2023-03-05T00:02:32.935Z,19.30
2023-03-05T00:06:17.229Z,18.63
2023-03-05T00:10:03.833Z,21.08
2023-03-05T00:13:46.333Z,21.07
2023-03-05T00:17:28.298Z,17.27
2023-03-05T00:21:32.531Z,18.48
2023-03-05T00:25:14.453Z,23.60
2023-03-05T00:28:58.000Z,18.73
2023-03-05T00:32:40.100Z,23.77
2023-03-05T00:36:22.358Z,19.60
2023-03-05T00:40:05.124Z,22.20
2023-03-05T00:43:48.094Z,21.65
2023-03-05T00:47:29.980Z,21.23
2023-03-05T00:51:12.152Z,20.73
2023-03-05T00:54:54.098Z,23.42
2023-03-05T00:58:36.119Z,20.50
2023-03-05T01:02:18.032Z,19.73
2023-03-05T01:06:00.579Z,19.75
2023-03-05T01:09:42.485Z,22.88
2023-03-05T01:13:24.532Z,22.67
2023-03-05T01:17:06.480Z,24.60
2023-03-05T01:20:48.494Z,22.77
2023-03-05T01:24:33.594Z,22.27
2023-03-05T01:28:15.620Z,22.60
2023-03-05T01:31:57.514Z,24.73
2023-03-05T01:35:39.483Z,22.60
2023-03-05T01:39:21.484Z,22.07
2023-03-05T01:43:12.250Z,21.65
2023-03-05T01:46:54.370Z,25.63
2023-03-05T01:50:36.627Z,21.30
2023-03-05T01:54:20.919Z,27.73
2023-03-05T01:58:06.849Z,22.48
2023-03-05T02:01:53.253Z,22.75
2023-03-05T02:05:38.193Z,21.80
2023-03-05T02:09:24.028Z,22.90
2023-03-05T02:13:16.958Z,23.77
2023-03-05T02:16:58.921Z,24.90
2023-03-05T02:20:56.112Z,21.50
2023-03-05T02:24:38.034Z,26.13
2023-03-05T02:28:35.125Z,24.43
2023-03-05T02:32:17.024Z,22.90
2023-03-05T02:35:59.262Z,23.85
2023-03-05T02:39:41.136Z,25.33
2023-03-05T02:43:23.137Z,23.13
2023-03-05T02:47:05.251Z,23.08
2023-03-05T02:50:48.486Z,23.17
2023-03-05T02:54:30.377Z,28.23
2023-03-05T02:58:12.285Z,22.77
2023-03-05T03:01:54.151Z,22.40
2023-03-05T03:05:37.070Z,25.17
2023-03-05T03:09:19.026Z,27.98
2023-03-05T03:13:00.983Z,23.33
2023-03-05T03:16:43.036Z,25.00
2023-03-05T03:20:25.028Z,24.27
2023-03-05T03:24:07.244Z,21.08
2023-03-05T03:27:49.448Z,20.02
2023-03-05T03:31:31.352Z,22.37
2023-03-05T03:35:13.829Z,23.85
2023-03-05T03:38:55.808Z,20.15
2023-03-05T03:42:37.775Z,24.53
2023-03-05T03:46:19.716Z,23.80
2023-03-05T03:50:01.988Z,25.45
2023-03-05T03:53:43.996Z,22.10
2023-03-05T03:57:26.222Z,22.23
2023-03-05T04:01:08.156Z,19.08
2023-03-05T04:04:50.234Z,20.02
2023-03-05T04:08:32.131Z,21.23
2023-03-05T04:12:18.070Z,19.85
2023-03-05T04:16:00.153Z,22.60
2023-03-05T04:19:43.270Z,20.43
2023-03-05T04:23:25.584Z,23.73
2023-03-05T04:27:07.695Z,21.67
2023-03-05T04:30:49.950Z,23.73
2023-03-05T04:34:32.970Z,20.87
2023-03-05T04:38:14.929Z,22.10
2023-03-05T04:41:56.895Z,21.30
2023-03-05T04:45:43.258Z,22.57
2023-03-05T04:49:25.221Z,23.45
2023-03-05T04:53:07.118Z,22.35
2023-03-05T04:56:49.102Z,22.43
2023-03-05T05:00:30.969Z,20.77
2023-03-05T05:04:13.072Z,22.58
2023-03-05T05:07:56.980Z,21.02
2023-03-05T05:11:40.066Z,22.00
2023-03-05T05:15:22.027Z,23.60
2023-03-05T05:19:04.082Z,26.00
2023-03-05T05:22:46.201Z,22.83
2023-03-05T05:26:28.068Z,23.80
2023-03-05T05:30:10.654Z,23.10
2023-03-05T05:33:52.640Z,28.50
2023-03-05T05:37:34.874Z,23.83
2023-03-05T05:41:18.810Z,25.73
2023-03-05T05:45:02.993Z,26.30
2023-03-05T05:48:45.934Z,23.17
2023-03-05T05:52:27.898Z,29.52
2023-03-05T05:56:11.762Z,25.90
2023-03-05T05:59:53.660Z,23.93
2023-03-05T06:03:35.641Z,24.92
2023-03-05T06:07:17.562Z,23.13
2023-03-05T06:10:59.491Z,23.63
2023-03-05T06:14:43.849Z,23.70
2023-03-05T06:18:26.058Z,26.08
2023-03-05T06:22:08.175Z,25.52
2023-03-05T06:25:50.150Z,19.17
2023-03-05T06:29:32.465Z,21.08
2023-03-05T06:33:14.406Z,20.23
2023-03-05T06:36:56.979Z,18.10
2023-03-05T06:40:39.918Z,15.75
2023-03-05T06:44:22.135Z,14.05
2023-03-05T06:48:04.256Z,14.37
2023-03-05T06:51:46.313Z,17.65
2023-03-05T06:55:28.248Z,12.10
2023-03-05T06:59:12.069Z,13.93
2023-03-05T07:02:53.984Z,12.47
2023-03-05T07:06:38.657Z,12.50
2023-03-05T07:10:20.602Z,11.20
2023-03-05T07:14:03.326Z,9.53
2023-03-05T07:17:45.564Z,9.88
2023-03-05T07:21:30.220Z,11.05
2023-03-05T07:25:12.312Z,9.93
2023-03-05T07:28:54.827Z,10.50
2023-03-05T07:32:36.915Z,12.73
2023-03-05T07:36:19.354Z,7.72
2023-03-05T07:40:01.418Z,9.63
2023-03-05T07:43:45.059Z,8.27
2023-03-05T07:47:47.574Z,8.15
2023-03-05T07:51:30.477Z,12.07
2023-03-05T07:55:12.750Z,10.80
2023-03-05T07:59:26.954Z,7.93
2023-03-05T08:03:08.944Z,8.63
2023-03-05T08:06:54.937Z,9.00
2023-03-05T08:10:37.666Z,8.45
2023-03-05T08:14:19.863Z,7.93
2023-03-05T08:18:14.417Z,7.63
2023-03-05T08:21:56.538Z,6.65
2023-03-05T08:25:39.012Z,8.27
2023-03-05T08:29:31.565Z,7.43
2023-03-05T08:33:14.779Z,10.68
2023-03-05T08:36:56.973Z,8.80
2023-03-05T08:40:46.145Z,7.80
2023-03-05T08:44:28.339Z,11.00
2023-03-05T08:48:10.379Z,7.15
2023-03-05T08:51:59.564Z,7.15
2023-03-05T08:55:44.102Z,7.20
2023-03-05T08:59:26.433Z,8.55
2023-03-05T09:03:16.177Z,9.30
2023-03-05T09:06:58.633Z,7.30
2023-03-05T09:10:43.977Z,7.50
2023-03-05T09:14:32.567Z,6.53
2023-03-05T09:18:14.762Z,8.37
2023-03-05T09:21:57.400Z,6.70
2023-03-05T09:25:48.826Z,9.88
2023-03-05T09:29:31.493Z,6.95
2023-03-05T09:33:13.668Z,10.10
2023-03-05T09:37:06.608Z,9.05
2023-03-05T09:45:28.165Z,8.77
2023-03-05T09:49:55.133Z,7.35
2023-03-05T09:54:25.169Z,9.43
2023-03-05T09:58:56.304Z,10.00
2023-03-05T10:03:27.840Z,9.45
2023-03-05T10:12:27.246Z,6.75
2023-03-05T10:33:50.471Z,8.02
2023-03-05T10:38:20.356Z,8.67
2023-03-05T10:42:52.320Z,7.53
2023-03-05T10:55:22.526Z,5.80
2023-03-05T11:04:18.392Z,6.78
2023-03-05T11:13:12.453Z,8.27
2023-03-05T11:16:54.397Z,7.28
2023-03-05T11:21:18.691Z,6.80
2023-03-05T11:29:09.988Z,8.98
2023-03-05T11:38:03.844Z,7.60
2023-03-05T11:42:34.516Z,8.90
2023-03-05T11:47:04.458Z,7.47
2023-03-05T11:51:34.585Z,8.50
2023-03-05T11:55:54.066Z,6.55
2023-03-05T11:59:41.357Z,7.78
2023-03-05T12:03:48.648Z,8.23
2023-03-05T12:43:35.333Z,6.75
2023-03-05T12:48:03.214Z,7.90
2023-03-05T12:52:13.484Z,6.85
2023-03-05T13:04:49.316Z,8.38
2023-03-05T13:26:20.549Z,9.07
2023-03-05T13:35:14.006Z,10.48
2023-03-05T13:43:13.668Z,9.57
2023-03-05T13:47:42.225Z,8.93
2023-03-05T13:52:07.109Z,9.40
2023-03-05T13:56:34.936Z,9.82
2023-03-05T14:30:31.110Z,12.80
2023-03-05T14:38:29.768Z,13.25
2023-03-05T14:46:16.163Z,11.50
2023-03-05T14:54:59.334Z,11.60
2023-03-05T14:58:41.373Z,14.27
2023-03-05T15:02:52.120Z,12.30
2023-03-05T15:06:38.164Z,10.20
2023-03-05T15:10:47.115Z,12.32
2023-03-05T15:14:29.456Z,14.35
2023-03-05T15:35:39.622Z,10.93
2023-03-05T15:43:43.354Z,11.60
2023-03-05T15:52:38.372Z,7.72
2023-03-05T15:57:06.544Z,9.52
2023-03-05T16:05:09.865Z,9.17
2023-03-05T16:14:02.218Z,11.65
2023-03-05T16:22:02.236Z,12.95
2023-03-05T16:29:51.539Z,13.10
2023-03-05T16:34:14.719Z,11.02
2023-03-05T16:42:05.696Z,14.35
2023-03-05T16:49:58.525Z,12.68
2023-03-05T16:53:41.852Z,13.45
2023-03-05T17:01:30.339Z,13.15
2023-03-05T17:10:22.373Z,15.27
2023-03-05T17:18:22.760Z,16.50
2023-03-05T17:22:42.943Z,15.05
2023-03-05T17:30:52.474Z,16.52
2023-03-05T17:38:38.588Z,12.60
2023-03-05T17:52:16.712Z,12.70
2023-03-05T18:05:33.842Z,13.20
2023-03-05T18:09:15.936Z,13.17
2023-03-05T18:12:59.302Z,24.02
2023-03-05T18:16:41.357Z,13.65
2023-03-05T18:20:31.324Z,14.33
2023-03-05T18:24:13.241Z,15.68
2023-03-05T18:27:55.162Z,14.18
2023-03-05T18:31:37.297Z,16.20
2023-03-05T18:35:19.476Z,15.32
2023-03-05T18:39:01.423Z,15.65
2023-03-05T18:42:43.682Z,16.98
2023-03-05T18:46:25.990Z,16.53
2023-03-05T18:50:14.946Z,16.08
2023-03-05T18:53:57.631Z,19.27
2023-03-05T18:57:39.541Z,17.73
2023-03-05T19:01:21.848Z,17.52
2023-03-05T19:05:04.002Z,18.38
2023-03-05T19:08:46.811Z,16.63
2023-03-05T19:12:34.271Z,18.75
2023-03-05T19:16:18.356Z,18.45
2023-03-05T19:20:00.712Z,19.20
2023-03-05T19:23:42.664Z,18.80
2023-03-05T19:27:26.323Z,21.00
2023-03-05T19:31:08.682Z,21.13
2023-03-05T19:34:50.932Z,24.43
2023-03-05T19:38:32.872Z,20.25
2023-03-05T19:42:15.321Z,20.77
2023-03-05T19:46:04.807Z,23.43
2023-03-05T19:49:46.907Z,23.90
2023-03-05T19:53:30.697Z,22.60
2023-03-05T19:57:15.170Z,21.95
2023-03-05T20:01:29.195Z,18.97
2023-03-05T20:05:11.455Z,20.17
2023-03-05T20:08:53.743Z,18.25
2023-03-05T20:12:36.530Z,20.50
2023-03-05T20:16:23.718Z,21.30
2023-03-05T20:20:08.713Z,20.98
2023-03-05T20:23:55.825Z,20.10
2023-03-05T20:27:38.654Z,20.58
2023-03-05T20:31:22.861Z,21.48
2023-03-05T20:35:05.642Z,19.25
2023-03-05T20:38:47.655Z,17.50
2023-03-05T20:42:29.720Z,21.33
2023-03-05T20:46:25.106Z,16.88
2023-03-05T20:50:11.645Z,16.90
2023-03-05T20:54:04.178Z,16.45
2023-03-05T20:57:46.393Z,16.70
2023-03-05T21:01:28.939Z,15.50
2023-03-05T21:05:13.379Z,16.17
2023-03-05T21:08:56.069Z,14.55
2023-03-05T21:12:38.295Z,14.27
2023-03-05T21:16:23.070Z,16.53
2023-03-05T21:20:08.783Z,14.07
2023-03-05T21:23:53.407Z,14.32
2023-03-05T21:27:35.433Z,13.40
2023-03-05T21:31:20.321Z,15.80
2023-03-05T21:35:02.537Z,11.38
2023-03-05T21:38:51.689Z,13.03
2023-03-05T21:42:33.854Z,14.05
2023-03-05T21:46:15.968Z,11.73
2023-03-05T21:49:58.121Z,13.00
2023-03-05T21:53:40.130Z,12.40
2023-03-05T21:57:22.535Z,12.57
2023-03-05T22:01:04.592Z,13.32
2023-03-05T22:04:47.580Z,12.10
2023-03-05T22:08:32.742Z,16.10
2023-03-05T22:12:20.322Z,12.05
2023-03-05T22:16:02.290Z,12.53
2023-03-05T22:19:44.343Z,12.30
2023-03-05T22:23:29.417Z,12.50
2023-03-05T22:27:11.909Z,15.00
2023-03-05T22:30:54.398Z,14.00
2023-03-05T22:34:37.664Z,13.40
2023-03-05T22:38:19.947Z,12.65
2023-03-05T22:42:01.973Z,12.50
2023-03-05T22:45:43.983Z,13.82
2023-03-05T22:49:26.011Z,14.73
2023-03-05T22:53:08.028Z,14.73
2023-03-05T22:56:50.088Z,14.23
2023-03-05T23:00:32.140Z,11.10
2023-03-05T23:04:39.113Z,13.32
2023-03-05T23:08:21.163Z,18.97
2023-03-05T23:12:03.241Z,13.75
2023-03-05T23:15:45.301Z,15.80
2023-03-05T23:19:27.283Z,11.93
2023-03-05T23:23:09.617Z,11.88
2023-03-05T23:26:51.566Z,13.10
2023-03-05T23:30:37.341Z,13.80
2023-03-05T23:34:22.322Z,14.13
2023-03-05T23:38:07.250Z,13.45
2023-03-05T23:41:49.256Z,11.25
2023-03-05T23:45:31.462Z,11.40
2023-03-05T23:49:13.487Z,13.18
2023-03-05T23:52:55.718Z,11.85
2023-03-05T23:56:37.718Z,13.10
